createdAt,value
2022-08-26T00:00:21.000Z,20.64
2022-08-26T00:01:21.000Z,20.63
2022-08-26T00:02:21.000Z,20.61
2022-08-26T00:03:21.000Z,20.60
2022-08-26T00:04:21.000Z,20.57
2022-08-26T00:05:21.000Z,20.57
2022-08-26T00:06:21.000Z,20.53
2022-08-26T00:07:21.000Z,20.48
2022-08-26T00:07:21.000Z,20.48
2022-08-26T00:08:21.000Z,20.48
2022-08-26T00:08:21.000Z,20.48
2022-08-26T00:09:21.000Z,20.46
2022-08-26T00:09:21.000Z,20.46
2022-08-26T00:10:21.000Z,20.42
2022-08-26T00:10:21.000Z,20.42
2022-08-26T00:11:21.000Z,20.41
2022-08-26T00:11:21.000Z,20.41
2022-08-26T00:12:21.000Z,20.41
2022-08-26T00:13:21.000Z,20.35
2022-08-26T00:14:21.000Z,20.35
2022-08-26T00:15:21.000Z,20.35
2022-08-26T00:16:21.000Z,20.34
2022-08-26T00:17:21.000Z,20.31
2022-08-26T00:18:21.000Z,20.33
2022-08-26T00:19:21.000Z,20.33
2022-08-26T00:20:21.000Z,20.31
2022-08-26T00:21:21.000Z,20.31
2022-08-26T00:22:21.000Z,20.27
2022-08-26T00:23:21.000Z,20.26
2022-08-26T00:24:21.000Z,20.30
2022-08-26T00:25:21.000Z,20.26
2022-08-26T00:26:21.000Z,20.26
2022-08-26T00:27:21.000Z,20.26
2022-08-26T00:28:21.000Z,20.25
2022-08-26T00:29:21.000Z,20.22
2022-08-26T00:30:21.000Z,20.26
2022-08-26T00:31:21.000Z,20.20
2022-08-26T00:32:21.000Z,20.25
2022-08-26T00:33:21.000Z,20.23
2022-08-26T00:34:21.000Z,20.23
2022-08-26T00:35:21.000Z,20.20
2022-08-26T00:36:21.000Z,20.25
2022-08-26T00:37:21.000Z,20.25
2022-08-26T00:38:21.000Z,20.19
2022-08-26T00:39:21.000Z,20.22
2022-08-26T00:40:21.000Z,20.19
2022-08-26T00:41:21.000Z,20.20
2022-08-26T00:42:21.000Z,20.20
2022-08-26T00:43:21.000Z,20.19
2022-08-26T00:44:21.000Z,20.17
2022-08-26T00:45:21.000Z,20.17
2022-08-26T00:46:21.000Z,20.17
2022-08-26T00:47:21.000Z,20.16
2022-08-26T00:48:21.000Z,20.16
2022-08-26T00:49:21.000Z,20.12
2022-08-26T00:50:21.000Z,20.12
2022-08-26T00:51:21.000Z,20.12
2022-08-26T00:52:21.000Z,20.05
2022-08-26T00:53:21.000Z,20.04
2022-08-26T00:54:21.000Z,20.02
2022-08-26T00:55:21.000Z,20.05
2022-08-26T00:56:20.000Z,20.05
2022-08-26T00:57:20.000Z,20.02
2022-08-26T00:58:20.000Z,20.02
2022-08-26T00:59:20.000Z,20.00
2022-08-26T01:00:20.000Z,19.98
2022-08-26T01:01:20.000Z,19.98
2022-08-26T01:02:20.000Z,19.95
2022-08-26T01:03:20.000Z,19.92
2022-08-26T01:04:20.000Z,19.90
2022-08-26T01:05:20.000Z,19.94
2022-08-26T01:06:20.000Z,19.89
2022-08-26T01:07:20.000Z,19.94
2022-08-26T01:08:20.000Z,19.92
2022-08-26T01:09:20.000Z,19.90
2022-08-26T01:10:20.000Z,19.89
2022-08-26T01:11:20.000Z,19.87
2022-08-26T01:12:20.000Z,19.85
2022-08-26T01:13:20.000Z,19.85
2022-08-26T01:14:20.000Z,19.82
2022-08-26T01:15:20.000Z,19.83
2022-08-26T01:16:20.000Z,19.82
2022-08-26T01:17:20.000Z,19.80
2022-08-26T01:18:20.000Z,19.80
2022-08-26T01:19:20.000Z,19.75
2022-08-26T01:20:20.000Z,19.79
2022-08-26T01:21:20.000Z,19.78
2022-08-26T01:22:20.000Z,19.80
2022-08-26T01:23:20.000Z,19.80
2022-08-26T01:24:20.000Z,19.83
2022-08-26T01:25:20.000Z,19.86
2022-08-26T01:26:20.000Z,19.87
2022-08-26T01:27:20.000Z,19.87
2022-08-26T01:28:20.000Z,19.86
2022-08-26T01:29:20.000Z,19.89
2022-08-26T01:30:20.000Z,19.92
2022-08-26T01:31:20.000Z,19.87
2022-08-26T01:32:20.000Z,19.90
2022-08-26T01:33:20.000Z,19.89
2022-08-26T01:34:20.000Z,19.87
2022-08-26T01:35:20.000Z,19.86
2022-08-26T01:36:20.000Z,19.86
2022-08-26T01:37:20.000Z,19.86
2022-08-26T01:38:20.000Z,19.82
2022-08-26T01:39:20.000Z,19.83
2022-08-26T01:40:20.000Z,19.85
2022-08-26T01:41:20.000Z,19.83
2022-08-26T01:42:20.000Z,19.82
2022-08-26T01:43:20.000Z,19.86
2022-08-26T01:44:20.000Z,19.87
2022-08-26T01:45:20.000Z,19.85
2022-08-26T01:46:20.000Z,19.89
2022-08-26T01:47:20.000Z,19.87
2022-08-26T01:48:20.000Z,19.85
2022-08-26T01:49:20.000Z,19.87
2022-08-26T01:50:20.000Z,19.87
2022-08-26T01:51:20.000Z,19.87
2022-08-26T01:52:20.000Z,19.89
2022-08-26T01:53:20.000Z,19.87
2022-08-26T01:54:20.000Z,19.86
2022-08-26T01:55:20.000Z,19.83
2022-08-26T01:56:20.000Z,19.85
2022-08-26T01:57:20.000Z,19.82
2022-08-26T01:58:20.000Z,19.83
2022-08-26T01:59:20.000Z,19.76
2022-08-26T02:00:20.000Z,19.79
2022-08-26T02:01:20.000Z,19.75
2022-08-26T02:02:20.000Z,19.75
2022-08-26T02:03:20.000Z,19.72
2022-08-26T02:04:20.000Z,19.71
2022-08-26T02:05:20.000Z,19.72
2022-08-26T02:06:20.000Z,19.76
2022-08-26T02:07:20.000Z,19.75
2022-08-26T02:08:19.000Z,19.72
2022-08-26T02:09:19.000Z,19.68
2022-08-26T02:10:19.000Z,19.75
2022-08-26T02:11:19.000Z,19.75
2022-08-26T02:12:19.000Z,19.75
2022-08-26T02:13:19.000Z,19.71
2022-08-26T02:14:19.000Z,19.68
2022-08-26T02:15:19.000Z,19.70
2022-08-26T02:16:19.000Z,19.72
2022-08-26T02:17:19.000Z,19.67
2022-08-26T02:18:19.000Z,19.68
2022-08-26T02:19:19.000Z,19.65
2022-08-26T02:20:19.000Z,19.67
2022-08-26T02:21:19.000Z,19.64
2022-08-26T02:22:19.000Z,19.64
2022-08-26T02:23:19.000Z,19.62
2022-08-26T02:24:19.000Z,19.60
2022-08-26T02:25:19.000Z,19.60
2022-08-26T02:26:19.000Z,19.61
2022-08-26T02:27:19.000Z,19.57
2022-08-26T02:28:19.000Z,19.55
2022-08-26T02:29:19.000Z,19.55
2022-08-26T02:30:19.000Z,19.60
2022-08-26T02:31:19.000Z,19.58
2022-08-26T02:32:19.000Z,19.55
2022-08-26T02:33:19.000Z,19.50
2022-08-26T02:34:19.000Z,19.52
2022-08-26T02:35:19.000Z,19.52
2022-08-26T02:36:19.000Z,19.52
2022-08-26T02:37:19.000Z,19.46
2022-08-26T02:38:19.000Z,19.47
2022-08-26T02:39:19.000Z,19.50
2022-08-26T02:40:19.000Z,19.50
2022-08-26T02:41:19.000Z,19.49
2022-08-26T02:42:19.000Z,19.47
2022-08-26T02:43:19.000Z,19.50
2022-08-26T02:44:19.000Z,19.50
2022-08-26T02:45:19.000Z,19.47
2022-08-26T02:46:19.000Z,19.47
2022-08-26T02:47:19.000Z,19.47
2022-08-26T02:48:19.000Z,19.50
2022-08-26T02:49:19.000Z,19.47
2022-08-26T02:50:19.000Z,19.49
2022-08-26T02:51:19.000Z,19.50
2022-08-26T02:52:19.000Z,19.47
2022-08-26T02:53:19.000Z,19.50
2022-08-26T02:54:19.000Z,19.46
2022-08-26T02:55:19.000Z,19.49
2022-08-26T02:56:19.000Z,19.49
2022-08-26T02:57:19.000Z,19.47
2022-08-26T02:58:19.000Z,19.50
2022-08-26T02:59:19.000Z,19.49
2022-08-26T03:00:19.000Z,19.46
2022-08-26T03:01:19.000Z,19.47
2022-08-26T03:02:19.000Z,19.43
2022-08-26T03:03:19.000Z,19.43
2022-08-26T03:04:19.000Z,19.47
2022-08-26T03:05:19.000Z,19.46
2022-08-26T03:06:19.000Z,19.47
2022-08-26T03:07:19.000Z,19.46
2022-08-26T03:08:19.000Z,19.45
2022-08-26T03:09:19.000Z,19.43
2022-08-26T03:10:19.000Z,19.45
2022-08-26T03:11:19.000Z,19.43
2022-08-26T03:12:19.000Z,19.46
2022-08-26T03:13:19.000Z,19.45
2022-08-26T03:14:19.000Z,19.47
2022-08-26T03:15:19.000Z,19.46
2022-08-26T03:16:19.000Z,19.45
2022-08-26T03:17:19.000Z,19.47
2022-08-26T03:18:19.000Z,19.50
2022-08-26T03:19:19.000Z,19.49
2022-08-26T03:20:18.000Z,19.50
2022-08-26T03:21:18.000Z,19.49
2022-08-26T03:22:18.000Z,19.50
2022-08-26T03:23:18.000Z,19.50
2022-08-26T03:24:18.000Z,19.49
2022-08-26T03:25:18.000Z,19.49
2022-08-26T03:26:18.000Z,19.49
2022-08-26T03:27:18.000Z,19.49
2022-08-26T03:28:18.000Z,19.49
2022-08-26T03:29:18.000Z,19.47
2022-08-26T03:30:18.000Z,19.45
2022-08-26T03:31:18.000Z,19.46
2022-08-26T03:32:18.000Z,19.42
2022-08-26T03:33:18.000Z,19.43
2022-08-26T03:34:18.000Z,19.45
2022-08-26T03:35:18.000Z,19.40
2022-08-26T03:36:18.000Z,19.35
2022-08-26T03:37:18.000Z,19.40
2022-08-26T03:38:18.000Z,19.40
2022-08-26T03:39:18.000Z,19.38
2022-08-26T03:40:18.000Z,19.39
2022-08-26T03:41:18.000Z,19.39
2022-08-26T03:42:18.000Z,19.39
2022-08-26T03:43:18.000Z,19.38
2022-08-26T03:44:18.000Z,19.32
2022-08-26T03:45:18.000Z,19.32
2022-08-26T03:46:18.000Z,19.30
2022-08-26T03:47:18.000Z,19.30
2022-08-26T03:48:18.000Z,19.28
2022-08-26T03:49:18.000Z,19.30
2022-08-26T03:50:18.000Z,19.24
2022-08-26T03:51:18.000Z,19.25
2022-08-26T03:52:18.000Z,19.23
2022-08-26T03:53:18.000Z,19.21
2022-08-26T03:54:18.000Z,19.20
2022-08-26T03:55:18.000Z,19.20
2022-08-26T03:56:18.000Z,19.17
2022-08-26T03:57:18.000Z,19.13
2022-08-26T03:58:18.000Z,19.16
2022-08-26T03:59:18.000Z,19.13
2022-08-26T04:00:18.000Z,19.16
2022-08-26T04:01:18.000Z,19.13
2022-08-26T04:02:18.000Z,19.12
2022-08-26T04:03:18.000Z,19.13
2022-08-26T04:04:18.000Z,19.12
2022-08-26T04:05:18.000Z,19.07
2022-08-26T04:06:18.000Z,19.06
2022-08-26T04:07:25.000Z,19.05
2022-08-26T04:08:18.000Z,19.07
2022-08-26T04:09:18.000Z,19.05
2022-08-26T04:10:18.000Z,19.06
2022-08-26T04:11:18.000Z,19.02
2022-08-26T04:12:18.000Z,19.05
2022-08-26T04:13:18.000Z,18.99
2022-08-26T04:14:18.000Z,18.97
2022-08-26T04:15:18.000Z,18.97
2022-08-26T04:16:18.000Z,18.93
2022-08-26T04:17:18.000Z,18.93
2022-08-26T04:18:18.000Z,18.96
2022-08-26T04:19:18.000Z,18.93
2022-08-26T04:20:18.000Z,18.94
2022-08-26T04:21:18.000Z,18.96
2022-08-26T04:22:18.000Z,18.94
2022-08-26T04:23:18.000Z,18.97
2022-08-26T04:24:18.000Z,18.99
2022-08-26T04:25:18.000Z,18.97
2022-08-26T04:26:18.000Z,18.93
2022-08-26T04:27:18.000Z,18.96
2022-08-26T04:28:18.000Z,18.94
2022-08-26T04:29:18.000Z,18.97
2022-08-26T04:30:18.000Z,18.94
2022-08-26T04:31:18.000Z,18.93
2022-08-26T04:32:17.000Z,18.94
2022-08-26T04:33:17.000Z,18.93
2022-08-26T04:34:17.000Z,18.91
2022-08-26T04:35:17.000Z,18.91
2022-08-26T04:36:17.000Z,18.90
2022-08-26T04:37:17.000Z,18.91
2022-08-26T04:38:17.000Z,18.93
2022-08-26T04:39:17.000Z,18.91
2022-08-26T04:40:17.000Z,18.91
2022-08-26T04:41:17.000Z,18.91
2022-08-26T04:42:17.000Z,18.90
2022-08-26T04:42:17.000Z,18.90
2022-08-26T04:43:17.000Z,18.91
2022-08-26T04:43:17.000Z,18.91
2022-08-26T04:44:17.000Z,18.91
2022-08-26T04:44:17.000Z,18.91
2022-08-26T04:45:17.000Z,18.93
2022-08-26T04:45:17.000Z,18.93
2022-08-26T04:46:17.000Z,18.91
2022-08-26T04:46:17.000Z,18.91
2022-08-26T04:47:17.000Z,18.91
2022-08-26T04:48:17.000Z,18.96
2022-08-26T04:49:17.000Z,18.99
2022-08-26T04:50:17.000Z,19.02
2022-08-26T04:51:17.000Z,19.05
2022-08-26T04:52:17.000Z,19.07
2022-08-26T04:53:17.000Z,19.09
2022-08-26T04:54:17.000Z,19.13
2022-08-26T04:55:17.000Z,19.12
2022-08-26T04:56:17.000Z,19.15
2022-08-26T04:57:17.000Z,19.13
2022-08-26T04:58:17.000Z,19.15
2022-08-26T04:59:17.000Z,19.20
2022-08-26T05:00:17.000Z,19.15
2022-08-26T05:01:17.000Z,19.20
2022-08-26T05:02:17.000Z,19.21
2022-08-26T05:03:17.000Z,19.27
2022-08-26T05:04:17.000Z,19.25
2022-08-26T05:05:17.000Z,19.31
2022-08-26T05:06:17.000Z,19.34
2022-08-26T05:07:17.000Z,19.35
2022-08-26T05:08:17.000Z,19.35
2022-08-26T05:09:17.000Z,19.38
2022-08-26T05:10:17.000Z,19.45
2022-08-26T05:11:17.000Z,19.46
2022-08-26T05:12:17.000Z,19.46
2022-08-26T05:13:17.000Z,19.52
2022-08-26T05:14:17.000Z,19.57
2022-08-26T05:15:17.000Z,19.61
2022-08-26T05:16:17.000Z,19.67
2022-08-26T05:17:17.000Z,19.65
2022-08-26T05:18:17.000Z,19.71
2022-08-26T05:19:17.000Z,19.75
2022-08-26T05:20:17.000Z,19.78
2022-08-26T05:21:17.000Z,19.80
2022-08-26T05:22:17.000Z,19.85
2022-08-26T05:23:17.000Z,19.87
2022-08-26T05:24:17.000Z,19.92
2022-08-26T05:25:17.000Z,19.95
2022-08-26T05:26:17.000Z,20.00
2022-08-26T05:27:17.000Z,20.02
2022-08-26T05:28:17.000Z,20.05
2022-08-26T05:29:17.000Z,20.15
2022-08-26T05:30:17.000Z,20.16
2022-08-26T05:31:17.000Z,20.25
2022-08-26T05:32:17.000Z,20.26
2022-08-26T05:33:17.000Z,20.33
2022-08-26T05:34:17.000Z,20.33
2022-08-26T05:35:17.000Z,20.40
2022-08-26T05:36:17.000Z,20.44
2022-08-26T05:37:17.000Z,20.51
2022-08-26T05:38:17.000Z,20.54
2022-08-26T05:39:17.000Z,20.57
2022-08-26T05:40:17.000Z,20.56
2022-08-26T05:41:17.000Z,20.61
2022-08-26T05:42:17.000Z,20.63
2022-08-26T05:43:17.000Z,20.66
2022-08-26T05:44:16.000Z,20.71
2022-08-26T05:45:16.000Z,20.71
2022-08-26T05:46:16.000Z,20.75
2022-08-26T05:47:16.000Z,20.72
2022-08-26T05:48:16.000Z,20.76
2022-08-26T05:49:16.000Z,20.76
2022-08-26T05:50:16.000Z,20.79
2022-08-26T05:51:16.000Z,20.82
2022-08-26T05:52:16.000Z,20.85
2022-08-26T05:53:16.000Z,20.90
2022-08-26T05:54:16.000Z,20.98
2022-08-26T05:55:16.000Z,20.98
2022-08-26T05:56:16.000Z,21.05
2022-08-26T05:57:16.000Z,21.15
2022-08-26T05:58:16.000Z,21.15
2022-08-26T05:59:16.000Z,21.24
2022-08-26T06:00:16.000Z,21.27
2022-08-26T06:01:16.000Z,21.33
2022-08-26T06:02:16.000Z,21.40
2022-08-26T06:03:16.000Z,21.43
2022-08-26T06:04:16.000Z,21.48
2022-08-26T06:05:16.000Z,21.52
2022-08-26T06:06:16.000Z,21.58
2022-08-26T06:07:16.000Z,21.63
2022-08-26T06:08:16.000Z,21.68
2022-08-26T06:09:16.000Z,21.68
2022-08-26T06:10:16.000Z,21.71
2022-08-26T06:11:16.000Z,21.79
2022-08-26T06:12:16.000Z,21.82
2022-08-26T06:13:16.000Z,21.85
2022-08-26T06:14:16.000Z,21.93
2022-08-26T06:15:16.000Z,21.98
2022-08-26T06:16:16.000Z,22.04
2022-08-26T06:17:16.000Z,22.09
2022-08-26T06:18:16.000Z,22.15
2022-08-26T06:19:16.000Z,22.23
2022-08-26T06:20:16.000Z,22.27
2022-08-26T06:21:16.000Z,22.31
2022-08-26T06:22:16.000Z,22.36
2022-08-26T06:22:16.000Z,22.36
2022-08-26T06:23:16.000Z,22.38
2022-08-26T06:23:16.000Z,22.38
2022-08-26T06:24:16.000Z,22.38
2022-08-26T06:24:16.000Z,22.38
2022-08-26T06:25:16.000Z,22.39
2022-08-26T06:25:16.000Z,22.39
2022-08-26T06:26:16.000Z,22.39
2022-08-26T06:26:16.000Z,22.39
2022-08-26T06:27:16.000Z,22.42
2022-08-26T06:28:16.000Z,22.45
2022-08-26T06:29:16.000Z,22.49
2022-08-26T06:30:16.000Z,22.51
2022-08-26T06:31:16.000Z,22.51
2022-08-26T06:32:16.000Z,22.51
2022-08-26T06:33:16.000Z,22.46
2022-08-26T06:34:16.000Z,22.44
2022-08-26T06:35:16.000Z,22.48
2022-08-26T06:36:16.000Z,22.54
2022-08-26T06:37:16.000Z,22.54
2022-08-26T06:38:16.000Z,22.54
2022-08-26T06:39:16.000Z,22.56
2022-08-26T06:40:16.000Z,22.57
2022-08-26T06:41:16.000Z,22.59
2022-08-26T06:42:16.000Z,22.66
2022-08-26T06:43:16.000Z,22.63
2022-08-26T06:44:16.000Z,22.67
2022-08-26T06:45:16.000Z,22.67
2022-08-26T06:46:16.000Z,22.67
2022-08-26T06:47:16.000Z,22.72
2022-08-26T06:48:16.000Z,22.75
2022-08-26T06:49:16.000Z,22.72
2022-08-26T06:50:16.000Z,22.74
2022-08-26T06:51:16.000Z,22.72
2022-08-26T06:52:16.000Z,22.72
2022-08-26T06:53:16.000Z,22.72
2022-08-26T06:54:16.000Z,22.74
2022-08-26T06:55:16.000Z,22.76
2022-08-26T06:56:15.000Z,22.72
2022-08-26T06:57:15.000Z,22.76
2022-08-26T06:58:15.000Z,22.75
2022-08-26T06:59:15.000Z,22.76
2022-08-26T07:00:15.000Z,22.78
2022-08-26T07:01:15.000Z,22.79
2022-08-26T07:02:15.000Z,22.74
2022-08-26T07:03:15.000Z,22.78
2022-08-26T07:04:15.000Z,22.81
2022-08-26T07:05:15.000Z,22.79
2022-08-26T07:06:15.000Z,22.82
2022-08-26T07:07:15.000Z,22.82
2022-08-26T07:08:15.000Z,22.88
2022-08-26T07:09:15.000Z,22.93
2022-08-26T07:10:15.000Z,22.91
2022-08-26T07:11:15.000Z,22.97
2022-08-26T07:12:15.000Z,22.99
2022-08-26T07:13:15.000Z,23.03
2022-08-26T07:14:15.000Z,23.09
2022-08-26T07:15:15.000Z,23.07
2022-08-26T07:16:15.000Z,23.21
2022-08-26T07:17:15.000Z,23.23
2022-08-26T07:18:15.000Z,23.29
2022-08-26T07:19:15.000Z,23.34
2022-08-26T07:20:15.000Z,23.41
2022-08-26T07:21:15.000Z,23.45
2022-08-26T07:22:15.000Z,23.52
2022-08-26T07:23:15.000Z,23.54
2022-08-26T07:24:15.000Z,23.64
2022-08-26T07:25:15.000Z,23.62
2022-08-26T07:26:15.000Z,23.60
2022-08-26T07:27:15.000Z,23.69
2022-08-26T07:28:15.000Z,23.74
2022-08-26T07:29:15.000Z,23.79
2022-08-26T07:30:15.000Z,23.90
2022-08-26T07:31:15.000Z,23.94
2022-08-26T07:32:15.000Z,23.97
2022-08-26T07:33:15.000Z,24.04
2022-08-26T07:34:15.000Z,24.11
2022-08-26T07:35:15.000Z,24.09
2022-08-26T07:36:15.000Z,24.15
2022-08-26T07:37:15.000Z,24.24
2022-08-26T07:38:15.000Z,24.33
2022-08-26T07:39:15.000Z,24.42
2022-08-26T07:40:15.000Z,24.52
2022-08-26T07:41:15.000Z,24.60
2022-08-26T07:42:15.000Z,24.67
2022-08-26T07:43:15.000Z,24.70
2022-08-26T07:44:15.000Z,24.77
2022-08-26T07:45:15.000Z,24.75
2022-08-26T07:46:15.000Z,24.77
2022-08-26T07:47:15.000Z,24.86
2022-08-26T07:48:15.000Z,24.90
2022-08-26T07:49:15.000Z,24.93
2022-08-26T07:50:15.000Z,25.01
2022-08-26T07:51:15.000Z,25.07
2022-08-26T07:52:15.000Z,25.14
2022-08-26T07:53:15.000Z,25.22
2022-08-26T07:54:14.000Z,25.30
2022-08-26T07:55:14.000Z,25.34
2022-08-26T07:56:14.000Z,25.45
2022-08-26T07:57:14.000Z,25.46
2022-08-26T07:58:14.000Z,25.48
2022-08-26T07:59:14.000Z,25.56
2022-08-26T08:00:14.000Z,25.60
2022-08-26T08:01:14.000Z,25.79
2022-08-26T08:02:14.000Z,26.08
2022-08-26T08:02:14.000Z,26.08
2022-08-26T08:03:14.000Z,26.42
2022-08-26T08:03:14.000Z,26.42
2022-08-26T08:04:14.000Z,26.71
2022-08-26T08:04:14.000Z,26.71
2022-08-26T08:05:14.000Z,26.94
2022-08-26T08:05:14.000Z,26.94
2022-08-26T08:06:14.000Z,27.21
2022-08-26T08:06:14.000Z,27.21
2022-08-26T08:07:14.000Z,27.46
2022-08-26T08:08:14.000Z,27.72
2022-08-26T08:09:14.000Z,27.88
2022-08-26T08:10:14.000Z,28.14
2022-08-26T08:11:14.000Z,28.39
2022-08-26T08:12:14.000Z,28.61
2022-08-26T08:13:14.000Z,28.83
2022-08-26T08:14:14.000Z,29.05
2022-08-26T08:15:14.000Z,29.27
2022-08-26T08:16:14.000Z,29.42
2022-08-26T08:17:14.000Z,29.58
2022-08-26T08:18:14.000Z,29.39
2022-08-26T08:19:14.000Z,29.41
2022-08-26T08:20:14.000Z,29.33
2022-08-26T08:21:14.000Z,29.25
2022-08-26T08:22:14.000Z,29.20
2022-08-26T08:23:14.000Z,29.25
2022-08-26T08:24:14.000Z,29.33
2022-08-26T08:25:14.000Z,29.25
2022-08-26T08:26:14.000Z,29.11
2022-08-26T08:27:14.000Z,29.07
2022-08-26T08:28:14.000Z,29.14
2022-08-26T08:29:14.000Z,29.11
2022-08-26T08:30:14.000Z,29.03
2022-08-26T08:31:14.000Z,28.87
2022-08-26T08:32:14.000Z,28.65
2022-08-26T08:33:14.000Z,28.52
2022-08-26T08:34:14.000Z,28.45
2022-08-26T08:35:14.000Z,28.36
2022-08-26T08:36:14.000Z,28.15
2022-08-26T08:37:14.000Z,28.03
2022-08-26T08:38:14.000Z,27.95
2022-08-26T08:39:14.000Z,27.93
2022-08-26T08:40:14.000Z,27.90
2022-08-26T08:41:14.000Z,28.06
2022-08-26T08:42:14.000Z,28.13
2022-08-26T08:43:14.000Z,28.40
2022-08-26T08:44:14.000Z,28.70
2022-08-26T08:45:14.000Z,29.15
2022-08-26T08:46:14.000Z,29.55
2022-08-26T08:47:14.000Z,29.85
2022-08-26T08:48:14.000Z,30.06
2022-08-26T08:49:14.000Z,30.16
2022-08-26T08:50:14.000Z,30.34
2022-08-26T08:51:14.000Z,30.37
2022-08-26T08:52:14.000Z,30.53
2022-08-26T08:53:14.000Z,30.67
2022-08-26T08:54:14.000Z,30.82
2022-08-26T08:55:14.000Z,31.03
2022-08-26T08:56:14.000Z,31.25
2022-08-26T08:57:14.000Z,31.19
2022-08-26T08:58:14.000Z,31.15
2022-08-26T08:59:14.000Z,30.94
2022-08-26T09:00:14.000Z,30.85
2022-08-26T09:01:14.000Z,30.97
2022-08-26T09:02:14.000Z,31.04
2022-08-26T09:03:14.000Z,31.03
2022-08-26T09:04:14.000Z,31.13
2022-08-26T09:05:14.000Z,31.31
2022-08-26T09:06:13.000Z,31.50
2022-08-26T09:07:13.000Z,31.53
2022-08-26T09:07:13.000Z,31.53
2022-08-26T09:08:13.000Z,31.50
2022-08-26T09:08:13.000Z,31.50
2022-08-26T09:09:13.000Z,31.54
2022-08-26T09:09:13.000Z,31.54
2022-08-26T09:10:13.000Z,31.50
2022-08-26T09:10:13.000Z,31.50
2022-08-26T09:11:13.000Z,31.50
2022-08-26T09:11:13.000Z,31.50
2022-08-26T09:12:13.000Z,31.35
2022-08-26T09:13:13.000Z,31.41
2022-08-26T09:14:13.000Z,31.53
2022-08-26T09:15:13.000Z,31.53
2022-08-26T09:16:13.000Z,31.67
2022-08-26T09:17:13.000Z,31.74
2022-08-26T09:18:13.000Z,31.87
2022-08-26T09:19:13.000Z,31.92
2022-08-26T09:20:13.000Z,31.84
2022-08-26T09:21:13.000Z,31.75
2022-08-26T09:22:13.000Z,31.88
2022-08-26T09:23:13.000Z,32.24
2022-08-26T09:24:13.000Z,32.49
2022-08-26T09:25:13.000Z,32.53
2022-08-26T09:26:13.000Z,32.68
2022-08-26T09:27:13.000Z,32.81
2022-08-26T09:28:13.000Z,32.85
2022-08-26T09:29:13.000Z,32.95
2022-08-26T09:30:13.000Z,32.65
2022-08-26T09:31:13.000Z,32.27
2022-08-26T09:32:13.000Z,32.21
2022-08-26T09:33:13.000Z,32.27
2022-08-26T09:34:13.000Z,32.34
2022-08-26T09:35:13.000Z,32.53
2022-08-26T09:36:13.000Z,32.61
2022-08-26T09:37:13.000Z,32.56
2022-08-26T09:38:13.000Z,32.62
2022-08-26T09:39:13.000Z,32.88
2022-08-26T09:40:13.000Z,33.07
2022-08-26T09:41:13.000Z,33.18
2022-08-26T09:42:13.000Z,33.15
2022-08-26T09:43:13.000Z,33.03
2022-08-26T09:44:13.000Z,33.02
2022-08-26T09:45:13.000Z,32.91
2022-08-26T09:46:13.000Z,32.53
2022-08-26T09:47:13.000Z,32.41
2022-08-26T09:48:13.000Z,32.40
2022-08-26T09:49:13.000Z,32.32
2022-08-26T09:50:13.000Z,32.06
2022-08-26T09:51:13.000Z,31.84
2022-08-26T09:52:13.000Z,31.64
2022-08-26T09:53:13.000Z,31.57
2022-08-26T09:54:13.000Z,31.54
2022-08-26T09:55:13.000Z,31.59
2022-08-26T09:56:13.000Z,31.67
2022-08-26T09:57:13.000Z,31.76
2022-08-26T09:58:13.000Z,31.92
2022-08-26T09:59:13.000Z,31.95
2022-08-26T10:00:13.000Z,31.97
2022-08-26T10:01:13.000Z,31.95
2022-08-26T10:02:13.000Z,31.99
2022-08-26T10:03:13.000Z,32.10
2022-08-26T10:04:13.000Z,32.13
2022-08-26T10:05:13.000Z,31.97
2022-08-26T10:06:13.000Z,32.09
2022-08-26T10:07:13.000Z,32.21
2022-08-26T10:08:13.000Z,32.34
2022-08-26T10:09:13.000Z,32.41
2022-08-26T10:10:13.000Z,32.43
2022-08-26T10:11:13.000Z,32.61
2022-08-26T10:12:13.000Z,32.62
2022-08-26T10:13:13.000Z,32.83
2022-08-26T10:14:13.000Z,32.98
2022-08-26T10:15:13.000Z,32.90
2022-08-26T10:16:13.000Z,32.85
2022-08-26T10:17:13.000Z,32.58
2022-08-26T10:18:13.000Z,32.12
2022-08-26T10:19:13.000Z,31.65
2022-08-26T10:20:12.000Z,31.34
2022-08-26T10:21:12.000Z,31.28
2022-08-26T10:22:12.000Z,31.38
2022-08-26T10:23:12.000Z,31.45
2022-08-26T10:24:12.000Z,31.65
2022-08-26T10:25:12.000Z,31.76
2022-08-26T10:26:12.000Z,31.98
2022-08-26T10:27:12.000Z,32.19
2022-08-26T10:28:12.000Z,32.36
2022-08-26T10:29:12.000Z,32.41
2022-08-26T10:30:12.000Z,32.44
2022-08-26T10:31:12.000Z,32.29
2022-08-26T10:32:12.000Z,32.39
2022-08-26T10:33:12.000Z,32.43
2022-08-26T10:34:12.000Z,32.58
2022-08-26T10:35:12.000Z,32.72
2022-08-26T10:36:12.000Z,32.91
2022-08-26T10:37:12.000Z,32.99
2022-08-26T10:38:12.000Z,33.03
2022-08-26T10:39:12.000Z,32.87
2022-08-26T10:40:12.000Z,32.78
2022-08-26T10:41:12.000Z,32.65
2022-08-26T10:42:12.000Z,32.71
2022-08-26T10:43:12.000Z,32.81
2022-08-26T10:44:12.000Z,32.93
2022-08-26T10:45:12.000Z,33.03
2022-08-26T10:46:12.000Z,33.21
2022-08-26T10:47:12.000Z,33.45
2022-08-26T10:48:12.000Z,33.66
2022-08-26T10:49:12.000Z,33.82
2022-08-26T10:50:12.000Z,33.84
2022-08-26T10:51:12.000Z,34.08
2022-08-26T10:52:12.000Z,34.23
2022-08-26T10:53:12.000Z,34.18
2022-08-26T10:54:12.000Z,34.28
2022-08-26T10:55:12.000Z,34.33
2022-08-26T10:56:12.000Z,34.43
2022-08-26T10:57:12.000Z,34.53
2022-08-26T10:58:12.000Z,34.75
2022-08-26T10:59:12.000Z,34.90
2022-08-26T11:00:12.000Z,34.93
2022-08-26T11:01:12.000Z,34.81
2022-08-26T11:02:12.000Z,34.67
2022-08-26T11:03:12.000Z,34.60
2022-08-26T11:04:12.000Z,34.61
2022-08-26T11:05:12.000Z,34.64
2022-08-26T11:06:12.000Z,34.60
2022-08-26T11:07:12.000Z,34.53
2022-08-26T11:08:12.000Z,34.63
2022-08-26T11:09:12.000Z,34.69
2022-08-26T11:10:12.000Z,34.73
2022-08-26T11:11:12.000Z,34.93
2022-08-26T11:12:12.000Z,34.94
2022-08-26T11:13:12.000Z,35.00
2022-08-26T11:14:12.000Z,35.02
2022-08-26T11:15:12.000Z,35.07
2022-08-26T11:16:12.000Z,35.10
2022-08-26T11:17:12.000Z,35.07
2022-08-26T11:18:12.000Z,34.88
2022-08-26T11:19:12.000Z,34.83
2022-08-26T11:20:12.000Z,34.42
2022-08-26T11:21:12.000Z,33.93
2022-08-26T11:22:12.000Z,33.49
2022-08-26T11:23:12.000Z,33.14
2022-08-26T11:24:12.000Z,32.93
2022-08-26T11:25:11.000Z,32.66
2022-08-26T11:26:11.000Z,32.50
2022-08-26T11:27:11.000Z,32.35
2022-08-26T11:28:11.000Z,32.14
2022-08-26T11:29:11.000Z,32.10
2022-08-26T11:30:11.000Z,32.29
2022-08-26T11:31:11.000Z,32.53
2022-08-26T11:32:11.000Z,32.78
2022-08-26T11:33:11.000Z,33.11
2022-08-26T11:34:11.000Z,33.38
2022-08-26T11:35:11.000Z,33.65
2022-08-26T11:36:11.000Z,34.01
2022-08-26T11:37:11.000Z,34.30
2022-08-26T11:38:11.000Z,34.18
2022-08-26T11:39:11.000Z,34.00
2022-08-26T11:40:11.000Z,33.93
2022-08-26T11:41:11.000Z,33.92
2022-08-26T11:42:11.000Z,33.74
2022-08-26T11:43:11.000Z,33.75
2022-08-26T11:44:11.000Z,33.72
2022-08-26T11:45:11.000Z,33.62
2022-08-26T11:46:11.000Z,33.65
2022-08-26T11:47:11.000Z,33.92
2022-08-26T11:48:11.000Z,34.21
2022-08-26T11:49:11.000Z,34.38
2022-08-26T11:50:11.000Z,34.52
2022-08-26T11:51:11.000Z,34.36
2022-08-26T11:52:11.000Z,34.14
2022-08-26T11:53:11.000Z,33.89
2022-08-26T11:54:11.000Z,33.75
2022-08-26T11:55:11.000Z,33.59
2022-08-26T11:56:11.000Z,33.35
2022-08-26T11:57:11.000Z,33.17
2022-08-26T11:58:11.000Z,32.95
2022-08-26T11:59:11.000Z,32.80
2022-08-26T12:00:11.000Z,32.65
2022-08-26T12:01:11.000Z,32.51
2022-08-26T12:02:11.000Z,32.31
2022-08-26T12:03:11.000Z,32.16
2022-08-26T12:04:11.000Z,31.97
2022-08-26T12:05:11.000Z,31.72
2022-08-26T12:06:11.000Z,31.52
2022-08-26T12:07:11.000Z,31.42
2022-08-26T12:08:11.000Z,31.34
2022-08-26T12:09:11.000Z,31.27
2022-08-26T12:10:11.000Z,31.12
2022-08-26T12:11:11.000Z,30.91
2022-08-26T12:12:11.000Z,30.63
2022-08-26T12:13:11.000Z,30.48
2022-08-26T12:14:11.000Z,30.32
2022-08-26T12:15:11.000Z,30.15
2022-08-26T12:16:11.000Z,29.91
2022-08-26T12:24:29.000Z,25.96
2022-08-26T12:24:29.000Z,26.68
2022-08-26T12:25:29.000Z,25.29
2022-08-26T12:26:29.000Z,24.77
2022-08-26T12:27:29.000Z,24.31
2022-08-26T12:27:29.000Z,24.31
2022-08-26T12:28:29.000Z,23.97
2022-08-26T12:28:29.000Z,23.97
2022-08-26T12:29:29.000Z,23.62
2022-08-26T12:29:29.000Z,23.62
2022-08-26T12:30:29.000Z,23.37